セブ の空港の天気 - METARとTAF

マクタン・セブ国際空港 ( RPVM / CEB ) - フィリピン セブ / ラプ=ラプ
飛行場実況気象(Metar)
観測時間06/15 05:00 PHT (06/14 21:00 UTC)
風向・風速西 1m/s
視程10km以上
天気現象
少しの雲 雲底高度 610m
全天の8割程度の雲 雲底高度 7620m
気温26℃
湿度89%
気圧1010hPa
METARRPVM 142100Z 28002KT 9999 FEW020 BKN250 26/24 Q1010 RMK A2983
過去の天気等 Google飛行場航空写真 Wunderground天気予報

過去48時間のMETAR

飛行場予報(TAF)
発表時間: 6/15 01:00 PHT (6/14 17:00 UTC)
予報対象時間: 15日2時 PHT ~ 16日8時 PHT
風向・風速南南西 3m/s
視程10km以上
少しの雲 雲底高度 610m
全天の4割程度の雲 雲底高度 9140m
15日2時 PHT ~ 15日8時 PHT に一時的に
風向・風速南西 2m/s
15日8時 PHT ~ 15日14時 PHT に一時的に
風向・風速南 3m/s
少しの積乱雲 雲底高度 550m
全天の4割程度の雲 雲底高度 9140m
TAF RPVM 141700Z 1418/1524 20005KT 9999 FEW020 SCT300
TEMPO 1418/1424 22004KT
TEMPO 1500/1506 19006KT FEW018CB SCT300